sensor_id;sensor_type;location;lat;lon;timestamp;pressure;altitude;pressure_sealevel;temperature;humidity
52535;BME280;38443;53.164;5.802;2023-04-05T00:00:28;102789.84;;;0.50;100.00
52535;BME280;38443;53.164;5.802;2023-04-05T00:02:57;102782.81;;;0.49;100.00
52535;BME280;38443;53.164;5.802;2023-04-05T00:05:29;102784.47;;;0.47;100.00
52535;BME280;38443;53.164;5.802;2023-04-05T00:07:58;102781.84;;;0.47;100.00
52535;BME280;38443;53.164;5.802;2023-04-05T00:10:25;102782.66;;;0.46;100.00
52535;BME280;38443;53.164;5.802;2023-04-05T00:12:50;102778.97;;;0.42;100.00
52535;BME280;38443;53.164;5.802;2023-04-05T00:15:16;102779.56;;;0.35;100.00
52535;BME280;38443;53.164;5.802;2023-04-05T00:17:41;102772.34;;;0.31;100.00
52535;BME280;38443;53.164;5.802;2023-04-05T00:20:07;102772.00;;;0.23;100.00
52535;BME280;38443;53.164;5.802;2023-04-05T00:22:34;102764.81;;;0.19;100.00
52535;BME280;38443;53.164;5.802;2023-04-05T00:25:01;102771.81;;;0.18;100.00
52535;BME280;38443;53.164;5.802;2023-04-05T00:27:26;102776.81;;;0.12;100.00
52535;BME280;38443;53.164;5.802;2023-04-05T00:29:52;102775.69;;;0.07;100.00
52535;BME280;38443;53.164;5.802;2023-04-05T00:32:17;102777.38;;;0.05;100.00
52535;BME280;38443;53.164;5.802;2023-04-05T00:34:43;102776.38;;;0.03;100.00
52535;BME280;38443;53.164;5.802;2023-04-05T00:37:08;102779.78;;;0.01;100.00
52535;BME280;38443;53.164;5.802;2023-04-05T00:39:34;102772.78;;;0.01;100.00
52535;BME280;38443;53.164;5.802;2023-04-05T00:42:01;102773.47;;;-0.03;100.00
52535;BME280;38443;53.164;5.802;2023-04-05T00:44:26;102769.81;;;-0.07;100.00
52535;BME280;38443;53.164;5.802;2023-04-05T00:46:52;102768.84;;;-0.09;100.00
52535;BME280;38443;53.164;5.802;2023-04-05T00:49:18;102773.91;;;-0.13;100.00
52535;BME280;38443;53.164;5.802;2023-04-05T00:51:44;102770.22;;;-0.17;100.00
52535;BME280;38443;53.164;5.802;2023-04-05T00:54:10;102769.94;;;-0.23;100.00
52535;BME280;38443;53.164;5.802;2023-04-05T00:56:36;102775.28;;;-0.22;100.00
52535;BME280;38443;53.164;5.802;2023-04-05T00:59:01;102758.56;;;-0.22;100.00
52535;BME280;38443;53.164;5.802;2023-04-05T01:01:27;102764.75;;;-0.22;100.00
52535;BME280;38443;53.164;5.802;2023-04-05T01:03:57;102751.53;;;-0.23;100.00
52535;BME280;38443;53.164;5.802;2023-04-05T01:06:50;102749.72;;;-0.24;100.00
52535;BME280;38443;53.164;5.802;2023-04-05T01:09:32;102753.19;;;-0.25;100.00
52535;BME280;38443;53.164;5.802;2023-04-05T01:12:03;102751.44;;;-0.25;100.00
52535;BME280;38443;53.164;5.802;2023-04-05T01:14:30;102748.63;;;-0.29;100.00
52535;BME280;38443;53.164;5.802;2023-04-05T01:16:56;102741.50;;;-0.32;100.00
52535;BME280;38443;53.164;5.802;2023-04-05T01:19:28;102745.91;;;-0.31;100.00
52535;BME280;38443;53.164;5.802;2023-04-05T01:22:06;102746.78;;;-0.30;100.00
52535;BME280;38443;53.164;5.802;2023-04-05T01:24:51;102741.53;;;-0.30;100.00
52535;BME280;38443;53.164;5.802;2023-04-05T01:27:42;102738.91;;;-0.30;100.00
52535;BME280;38443;53.164;5.802;2023-04-05T01:30:16;102741.50;;;-0.32;100.00
52535;BME280;38443;53.164;5.802;2023-04-05T01:32:54;102740.63;;;-0.31;100.00
52535;BME280;38443;53.164;5.802;2023-04-05T01:37:59;102735.19;;;-0.35;100.00
52535;BME280;38443;53.164;5.802;2023-04-05T01:40:27;102728.88;;;-0.39;100.00
52535;BME280;38443;53.164;5.802;2023-04-05T01:42:53;102721.88;;;-0.38;100.00
52535;BME280;38443;53.164;5.802;2023-04-05T01:45:18;102727.13;;;-0.38;100.00
52535;BME280;38443;53.164;5.802;2023-04-05T01:47:43;102727.09;;;-0.40;100.00
52535;BME280;38443;53.164;5.802;2023-04-05T01:50:09;102723.47;;;-0.42;100.00
52535;BME280;38443;53.164;5.802;2023-04-05T01:52:34;102720.69;;;-0.45;100.00
52535;BME280;38443;53.164;5.802;2023-04-05T01:55:00;102725.06;;;-0.46;100.00
52535;BME280;38443;53.164;5.802;2023-04-05T01:57:25;102720.63;;;-0.47;100.00
52535;BME280;38443;53.164;5.802;2023-04-05T01:59:50;102718.84;;;-0.48;100.00
52535;BME280;38443;53.164;5.802;2023-04-05T02:02:15;102723.13;;;-0.50;100.00
52535;BME280;38443;53.164;5.802;2023-04-05T02:04:41;102715.97;;;-0.52;100.00
52535;BME280;38443;53.164;5.802;2023-04-05T02:07:06;102707.09;;;-0.54;100.00
52535;BME280;38443;53.164;5.802;2023-04-05T02:09:32;102700.00;;;-0.57;100.00
52535;BME280;38443;53.164;5.802;2023-04-05T02:11:57;102707.88;;;-0.57;100.00
52535;BME280;38443;53.164;5.802;2023-04-05T02:14:23;102702.50;;;-0.60;100.00
52535;BME280;38443;53.164;5.802;2023-04-05T02:16:49;102702.41;;;-0.62;100.00
52535;BME280;38443;53.164;5.802;2023-04-05T02:19:15;102697.97;;;-0.63;100.00
52535;BME280;38443;53.164;5.802;2023-04-05T02:21:40;102695.34;;;-0.63;100.00
52535;BME280;38443;53.164;5.802;2023-04-05T02:24:06;102701.28;;;-0.67;100.00
52535;BME280;38443;53.164;5.802;2023-04-05T02:26:31;102695.91;;;-0.70;100.00
52535;BME280;38443;53.164;5.802;2023-04-05T02:28:56;102693.19;;;-0.71;100.00
52535;BME280;38443;53.164;5.802;2023-04-05T02:31:22;102694.69;;;-0.76;100.00
52535;BME280;38443;53.164;5.802;2023-04-05T02:33:47;102695.44;;;-0.79;100.00
52535;BME280;38443;53.164;5.802;2023-04-05T02:36:13;102696.22;;;-0.82;100.00
52535;BME280;38443;53.164;5.802;2023-04-05T02:38:38;102696.97;;;-0.84;100.00
52535;BME280;38443;53.164;5.802;2023-04-05T02:41:07;102702.25;;;-0.84;100.00
52535;BME280;38443;53.164;5.802;2023-04-05T02:43:32;102702.16;;;-0.86;100.00
52535;BME280;38443;53.164;5.802;2023-04-05T02:45:59;102691.72;;;-0.84;100.00
52535;BME280;38443;53.164;5.802;2023-04-05T02:48:24;102688.94;;;-0.87;100.00
52535;BME280;38443;53.164;5.802;2023-04-05T02:50:50;102689.75;;;-0.88;100.00
52535;BME280;38443;53.164;5.802;2023-04-05T02:53:16;102690.59;;;-0.89;100.00
52535;BME280;38443;53.164;5.802;2023-04-05T02:55:41;102693.06;;;-0.92;100.00
52535;BME280;38443;53.164;5.802;2023-04-05T02:58:07;102690.50;;;-0.91;100.00
52535;BME280;38443;53.164;5.802;2023-04-05T03:00:33;102686.09;;;-0.92;100.00
52535;BME280;38443;53.164;5.802;2023-04-05T03:02:58;102680.59;;;-0.96;100.00
52535;BME280;38443;53.164;5.802;2023-04-05T03:05:23;102676.88;;;-1.02;100.00
52535;BME280;38443;53.164;5.802;2023-04-05T03:07:49;102680.25;;;-1.04;100.00
52535;BME280;38443;53.164;5.802;2023-04-05T03:10:16;102664.41;;;-1.06;100.00
52535;BME280;38443;53.164;5.802;2023-04-05T03:12:44;102665.19;;;-1.08;100.00
52535;BME280;38443;53.164;5.802;2023-04-05T03:15:09;102665.91;;;-1.11;100.00
52535;BME280;38443;53.164;5.802;2023-04-05T03:17:35;102665.78;;;-1.14;100.00
52535;BME280;38443;53.164;5.802;2023-04-05T03:20:02;102669.91;;;-1.19;100.00
52535;BME280;38443;53.164;5.802;2023-04-05T03:22:29;102664.44;;;-1.24;100.00
52535;BME280;38443;53.164;5.802;2023-04-05T03:24:54;102672.09;;;-1.28;100.00
52535;BME280;38443;53.164;5.802;2023-04-05T03:27:21;102671.13;;;-1.30;100.00
52535;BME280;38443;53.164;5.802;2023-04-05T03:29:46;102664.13;;;-1.30;100.00
52535;BME280;38443;53.164;5.802;2023-04-05T03:32:12;102663.25;;;-1.30;100.00
52535;BME280;38443;53.164;5.802;2023-04-05T03:34:38;102666.84;;;-1.28;100.00
52535;BME280;38443;53.164;5.802;2023-04-05T03:37:03;102664.06;;;-1.31;100.00
52535;BME280;38443;53.164;5.802;2023-04-05T03:39:28;102662.22;;;-1.32;100.00
52535;BME280;38443;53.164;5.802;2023-04-05T03:41:54;102664.72;;;-1.35;100.00
52535;BME280;38443;53.164;5.802;2023-04-05T03:44:20;102660.28;;;-1.36;100.00
52535;BME280;38443;53.164;5.802;2023-04-05T03:46:48;102665.31;;;-1.41;100.00
52535;BME280;38443;53.164;5.802;2023-04-05T03:49:14;102658.28;;;-1.42;100.00
52535;BME280;38443;53.164;5.802;2023-04-05T03:51:40;102656.34;;;-1.46;100.00
52535;BME280;38443;53.164;5.802;2023-04-05T03:54:06;102658.88;;;-1.48;100.00
52535;BME280;38443;53.164;5.802;2023-04-05T03:56:31;102657.00;;;-1.50;100.00
52535;BME280;38443;53.164;5.802;2023-04-05T03:58:57;102667.53;;;-1.50;100.00
52535;BME280;38443;53.164;5.802;2023-04-05T04:01:22;102660.28;;;-1.54;100.00
52535;BME280;38443;53.164;5.802;2023-04-05T04:03:48;102657.59;;;-1.56;100.00
52535;BME280;38443;53.164;5.802;2023-04-05T04:06:13;102654.00;;;-1.58;100.00
52535;BME280;38443;53.164;5.802;2023-04-05T04:08:39;102655.56;;;-1.62;100.00
52535;BME280;38443;53.164;5.802;2023-04-05T04:11:04;102653.03;;;-1.60;100.00
52535;BME280;38443;53.164;5.802;2023-04-05T04:13:30;102645.97;;;-1.61;100.00
52535;BME280;38443;53.164;5.802;2023-04-05T04:15:55;102650.47;;;-1.58;100.00
52535;BME280;38443;53.164;5.802;2023-04-05T04:18:21;102646.81;;;-1.62;100.00
52535;BME280;38443;53.164;5.802;2023-04-05T04:20:46;102657.31;;;-1.62;100.00
52535;BME280;38443;53.164;5.802;2023-04-05T04:23:12;102649.34;;;-1.64;100.00
52535;BME280;38443;53.164;5.802;2023-04-05T04:25:38;102644.97;;;-1.63;100.00
52535;BME280;38443;53.164;5.802;2023-04-05T04:28:05;102647.59;;;-1.63;100.00
52535;BME280;38443;53.164;5.802;2023-04-05T04:30:31;102652.72;;;-1.66;100.00
52535;BME280;38443;53.164;5.802;2023-04-05T04:33:00;102653.41;;;-1.70;100.00
52535;BME280;38443;53.164;5.802;2023-04-05T04:35:30;102661.19;;;-1.72;100.00
52535;BME280;38443;53.164;5.802;2023-04-05T04:37:57;102655.84;;;-1.73;100.00
52535;BME280;38443;53.164;5.802;2023-04-05T04:40:30;102652.25;;;-1.75;100.00
52535;BME280;38443;53.164;5.802;2023-04-05T04:43:13;102652.09;;;-1.78;100.00
52535;BME280;38443;53.164;5.802;2023-04-05T04:45:41;102646.78;;;-1.80;100.00
52535;BME280;38443;53.164;5.802;2023-04-05T04:48:07;102645.94;;;-1.79;100.00
52535;BME280;38443;53.164;5.802;2023-04-05T04:50:33;102645.84;;;-1.81;100.00
52535;BME280;38443;53.164;5.802;2023-04-05T04:52:58;102647.59;;;-1.81;100.00
52535;BME280;38443;53.164;5.802;2023-04-05T04:55:24;102647.69;;;-1.79;100.00
52535;BME280;38443;53.164;5.802;2023-04-05T04:57:53;102641.75;;;-1.75;100.00
52535;BME280;38443;53.164;5.802;2023-04-05T05:00:21;102644.47;;;-1.74;100.00
52535;BME280;38443;53.164;5.802;2023-04-05T05:02:47;102654.06;;;-1.74;100.00
52535;BME280;38443;53.164;5.802;2023-04-05T05:05:12;102650.59;;;-1.73;100.00
52535;BME280;38443;53.164;5.802;2023-04-05T05:07:39;102648.88;;;-1.73;100.00
52535;BME280;38443;53.164;5.802;2023-04-05T05:10:09;102650.59;;;-1.73;100.00
52535;BME280;38443;53.164;5.802;2023-04-05T05:12:35;102642.66;;;-1.75;100.00
52535;BME280;38443;53.164;5.802;2023-04-05T05:15:01;102645.34;;;-1.73;100.00
52535;BME280;38443;53.164;5.802;2023-04-05T05:17:26;102639.13;;;-1.75;100.00
52535;BME280;38443;53.164;5.802;2023-04-05T05:19:52;102644.28;;;-1.77;100.00
52535;BME280;38443;53.164;5.802;2023-04-05T05:22:17;102643.41;;;-1.77;100.00
52535;BME280;38443;53.164;5.802;2023-04-05T05:24:46;102639.13;;;-1.75;100.00
52535;BME280;38443;53.164;5.802;2023-04-05T05:27:12;102639.34;;;-1.71;100.00
52535;BME280;38443;53.164;5.802;2023-04-05T05:29:37;102648.38;;;-1.66;100.00
52535;BME280;38443;53.164;5.802;2023-04-05T05:32:03;102650.25;;;-1.63;100.00
52535;BME280;38443;53.164;5.802;2023-04-05T05:34:28;102645.97;;;-1.61;100.00
52535;BME280;38443;53.164;5.802;2023-04-05T05:36:54;102646.84;;;-1.61;100.00
52535;BME280;38443;53.164;5.802;2023-04-05T05:39:20;102634.69;;;-1.58;100.00
52535;BME280;38443;53.164;5.802;2023-04-05T05:41:46;102631.41;;;-1.54;100.00
52535;BME280;38443;53.164;5.802;2023-04-05T05:44:12;102634.03;;;-1.54;100.00
52535;BME280;38443;53.164;5.802;2023-04-05T05:46:37;102635.94;;;-1.52;100.00
52535;BME280;38443;53.164;5.802;2023-04-05T05:49:03;102641.41;;;-1.47;100.00
52535;BME280;38443;53.164;5.802;2023-04-05T05:51:28;102641.59;;;-1.43;100.00
52535;BME280;38443;53.164;5.802;2023-04-05T05:53:53;102637.63;;;-1.34;100.00
52535;BME280;38443;53.164;5.802;2023-04-05T05:56:19;102632.53;;;-1.31;100.00
52535;BME280;38443;53.164;5.802;2023-04-05T05:58:44;102637.41;;;-1.21;100.00
52535;BME280;38443;53.164;5.802;2023-04-05T06:01:10;102632.31;;;-1.18;100.00
52535;BME280;38443;53.164;5.802;2023-04-05T06:03:36;102636.94;;;-1.12;100.00
52535;BME280;38443;53.164;5.802;2023-04-05T06:06:02;102642.56;;;-1.05;100.00
52535;BME280;38443;53.164;5.802;2023-04-05T06:08:30;102641.06;;;-0.99;100.00
52535;BME280;38443;53.164;5.802;2023-04-05T06:10:56;102643.28;;;-0.89;100.00
52535;BME280;38443;53.164;5.802;2023-04-05T06:13:21;102649.94;;;-0.78;100.00
52535;BME280;38443;53.164;5.802;2023-04-05T06:15:46;102647.72;;;-0.69;100.00
52535;BME280;38443;53.164;5.802;2023-04-05T06:18:13;102647.47;;;-0.55;100.00
52535;BME280;38443;53.164;5.802;2023-04-05T06:20:38;102641.72;;;-0.47;100.00
52535;BME280;38443;53.164;5.802;2023-04-05T06:23:09;102636.78;;;-0.39;100.00
52535;BME280;38443;53.164;5.802;2023-04-05T06:25:34;102636.28;;;-0.30;100.00
52535;BME280;38443;53.164;5.802;2023-04-05T06:28:02;102650.63;;;-0.24;100.00
52535;BME280;38443;53.164;5.802;2023-04-05T06:30:28;102638.63;;;-0.17;100.00
52535;BME280;38443;53.164;5.802;2023-04-05T06:32:53;102643.09;;;0.05;100.00
52535;BME280;38443;53.164;5.802;2023-04-05T06:35:22;102637.03;;;0.48;100.00
52535;BME280;38443;53.164;5.802;2023-04-05T06:37:48;102633.00;;;0.58;100.00
52535;BME280;38443;53.164;5.802;2023-04-05T06:40:13;102634.41;;;0.93;100.00
52535;BME280;38443;53.164;5.802;2023-04-05T06:42:39;102623.91;;;1.90;100.00
52535;BME280;38443;53.164;5.802;2023-04-05T06:45:05;102621.78;;;2.85;100.00
52535;BME280;38443;53.164;5.802;2023-04-05T06:47:34;102612.00;;;3.73;100.00
52535;BME280;38443;53.164;5.802;2023-04-05T06:50:00;102607.59;;;4.42;100.00
52535;BME280;38443;53.164;5.802;2023-04-05T06:52:26;102601.78;;;4.96;100.00
52535;BME280;38443;53.164;5.802;2023-04-05T06:54:52;102606.94;;;5.30;100.00
52535;BME280;38443;53.164;5.802;2023-04-05T06:57:17;102605.19;;;5.76;100.00
52535;BME280;38443;53.164;5.802;2023-04-05T06:59:42;102608.28;;;5.99;100.00
52535;BME280;38443;53.164;5.802;2023-04-05T07:02:08;102599.31;;;6.44;100.00
52535;BME280;38443;53.164;5.802;2023-04-05T07:04:33;102606.38;;;6.42;100.00
52535;BME280;38443;53.164;5.802;2023-04-05T07:07:01;102601.72;;;6.84;100.00
52535;BME280;38443;53.164;5.802;2023-04-05T07:09:27;102589.66;;;7.10;100.00
52535;BME280;38443;53.164;5.802;2023-04-05T07:11:55;102585.44;;;7.28;100.00
52535;BME280;38443;53.164;5.802;2023-04-05T07:14:21;102580.50;;;7.60;100.00
52535;BME280;38443;53.164;5.802;2023-04-05T07:16:47;102590.25;;;7.58;100.00
52535;BME280;38443;53.164;5.802;2023-04-05T07:19:12;102588.78;;;7.89;100.00
52535;BME280;38443;53.164;5.802;2023-04-05T07:21:37;102587.00;;;7.88;100.00
52535;BME280;38443;53.164;5.802;2023-04-05T07:24:03;102587.28;;;8.19;100.00
52535;BME280;38443;53.164;5.802;2023-04-05T07:26:28;102589.75;;;7.96;100.00
52535;BME280;38443;53.164;5.802;2023-04-05T07:28:54;102587.53;;;8.47;100.00
52535;BME280;38443;53.164;5.802;2023-04-05T07:31:19;102585.03;;;8.68;100.00
52535;BME280;38443;53.164;5.802;2023-04-05T07:33:45;102584.03;;;8.52;100.00
52535;BME280;38443;53.164;5.802;2023-04-05T07:36:10;102583.31;;;8.76;100.00
52535;BME280;38443;53.164;5.802;2023-04-05T07:38:35;102577.91;;;8.69;100.00
52535;BME280;38443;53.164;5.802;2023-04-05T07:41:00;102578.13;;;9.12;100.00
52535;BME280;38443;53.164;5.802;2023-04-05T07:43:25;102578.09;;;8.98;100.00
52535;BME280;38443;53.164;5.802;2023-04-05T07:45:51;102569.34;;;9.37;100.00
52535;BME280;38443;53.164;5.802;2023-04-05T07:48:19;102573.78;;;9.35;100.00
52535;BME280;38443;53.164;5.802;2023-04-05T07:50:44;102576.50;;;9.45;100.00
52535;BME280;38443;53.164;5.802;2023-04-05T07:53:12;102566.69;;;9.41;100.00
52535;BME280;38443;53.164;5.802;2023-04-05T07:55:38;102573.81;;;9.43;100.00
52535;BME280;38443;53.164;5.802;2023-04-05T07:58:03;102573.81;;;9.38;100.00
52535;BME280;38443;53.164;5.802;2023-04-05T08:00:28;102576.56;;;9.66;100.00
52535;BME280;38443;53.164;5.802;2023-04-05T08:02:53;102571.19;;;9.57;100.00
52535;BME280;38443;53.164;5.802;2023-04-05T08:05:19;102562.31;;;9.86;100.00
52535;BME280;38443;53.164;5.802;2023-04-05T08:07:44;102569.50;;;10.08;100.00
52535;BME280;38443;53.164;5.802;2023-04-05T08:10:09;102575.69;;;9.92;100.00
52535;BME280;38443;53.164;5.802;2023-04-05T08:12:34;102572.13;;;10.02;100.00
52535;BME280;38443;53.164;5.802;2023-04-05T08:15:00;102575.69;;;9.84;96.69
52535;BME280;38443;53.164;5.802;2023-04-05T08:17:25;102569.47;;;10.16;100.00
52535;BME280;38443;53.164;5.802;2023-04-05T08:19:52;102572.16;;;10.25;100.00
52535;BME280;38443;53.164;5.802;2023-04-05T08:22:18;102564.13;;;10.22;93.48
52535;BME280;38443;53.164;5.802;2023-04-05T08:24:44;102558.78;;;10.50;100.00
52535;BME280;38443;53.164;5.802;2023-04-05T08:27:09;102544.53;;;10.51;89.65
52535;BME280;38443;53.164;5.802;2023-04-05T08:29:35;102547.16;;;10.78;100.00
52535;BME280;38443;53.164;5.802;2023-04-05T08:32:01;102550.72;;;10.64;82.14
52535;BME280;38443;53.164;5.802;2023-04-05T08:34:26;102555.19;;;10.77;100.00
52535;BME280;38443;53.164;5.802;2023-04-05T08:36:51;102553.38;;;10.87;100.00
52535;BME280;38443;53.164;5.802;2023-04-05T08:39:17;102549.72;;;11.00;100.00
52535;BME280;38443;53.164;5.802;2023-04-05T08:41:56;102545.34;;;10.81;93.72
52535;BME280;38443;53.164;5.802;2023-04-05T08:44:25;102544.47;;;10.74;100.00
52535;BME280;38443;53.164;5.802;2023-04-05T08:46:51;102548.06;;;10.56;74.89
52535;BME280;38443;53.164;5.802;2023-04-05T08:49:17;102536.34;;;10.95;100.00
52535;BME280;38443;53.164;5.802;2023-04-05T08:51:42;102530.16;;;10.89;97.03
52535;BME280;38443;53.164;5.802;2023-04-05T08:54:07;102532.84;;;10.73;90.47
52535;BME280;38443;53.164;5.802;2023-04-05T08:56:34;102529.22;;;10.93;93.26
52535;BME280;38443;53.164;5.802;2023-04-05T08:59:04;102531.94;;;10.77;83.94
52535;BME280;38443;53.164;5.802;2023-04-05T09:01:32;102534.66;;;10.62;90.04
52535;BME280;38443;53.164;5.802;2023-04-05T09:04:00;102535.56;;;10.63;92.05
52535;BME280;38443;53.164;5.802;2023-04-05T09:06:26;102537.41;;;10.39;91.83
52535;BME280;38443;53.164;5.802;2023-04-05T09:08:55;102533.78;;;10.29;89.04
52535;BME280;38443;53.164;5.802;2023-04-05T09:11:21;102534.69;;;10.16;90.58
52535;BME280;38443;53.164;5.802;2023-04-05T09:13:46;102525.78;;;9.91;91.94
52535;BME280;38443;53.164;5.802;2023-04-05T09:16:13;102531.09;;;9.69;90.52
52535;BME280;38443;53.164;5.802;2023-04-05T09:18:40;102531.09;;;9.65;93.12
52535;BME280;38443;53.164;5.802;2023-04-05T09:21:05;102537.25;;;9.31;74.22
52535;BME280;38443;53.164;5.802;2023-04-05T09:23:33;102531.88;;;9.19;96.64
52535;BME280;38443;53.164;5.802;2023-04-05T09:25:58;102528.25;;;9.08;100.00
52535;BME280;38443;53.164;5.802;2023-04-05T09:28:37;102536.88;;;8.54;83.68
52535;BME280;38443;53.164;5.802;2023-04-05T09:31:03;102534.25;;;8.59;100.00
52535;BME280;38443;53.164;5.802;2023-04-05T09:33:29;102528.63;;;8.25;72.17
52535;BME280;38443;53.164;5.802;2023-04-05T09:35:54;102542.00;;;8.27;98.60
52535;BME280;38443;53.164;5.802;2023-04-05T09:38:20;102530.28;;;8.06;80.49
52535;BME280;38443;53.164;5.802;2023-04-05T09:41:07;102527.56;;;8.02;94.21
52535;BME280;38443;53.164;5.802;2023-04-05T09:43:37;102522.22;;;8.00;94.73
52535;BME280;38443;53.164;5.802;2023-04-05T09:46:03;102518.72;;;8.07;98.69
52535;BME280;38443;53.164;5.802;2023-04-05T09:48:45;102519.59;;;8.08;93.94
52535;BME280;38443;53.164;5.802;2023-04-05T09:51:15;102525.88;;;8.13;98.14
52535;BME280;38443;53.164;5.802;2023-04-05T09:56:32;102511.69;;;8.17;90.44
52535;BME280;38443;53.164;5.802;2023-04-05T09:59:05;102517.91;;;8.19;92.67
52535;BME280;38443;53.164;5.802;2023-04-05T10:01:31;102517.16;;;8.34;96.00
52535;BME280;38443;53.164;5.802;2023-04-05T10:03:56;102509.09;;;8.29;77.94
52535;BME280;38443;53.164;5.802;2023-04-05T10:06:22;102507.47;;;8.45;91.24
52535;BME280;38443;53.164;5.802;2023-04-05T10:08:47;102506.53;;;8.40;74.10
52535;BME280;38443;53.164;5.802;2023-04-05T10:11:17;102501.16;;;8.34;81.44
52535;BME280;38443;53.164;5.802;2023-04-05T10:13:43;102504.84;;;8.48;84.57
52535;BME280;38443;53.164;5.802;2023-04-05T10:16:12;102509.31;;;8.52;79.65
52535;BME280;38443;53.164;5.802;2023-04-05T10:18:50;102503.09;;;8.56;69.16
52535;BME280;38443;53.164;5.802;2023-04-05T10:21:20;102499.66;;;8.76;74.48
52535;BME280;38443;53.164;5.802;2023-04-05T10:23:54;102494.34;;;8.91;75.83
52535;BME280;38443;53.164;5.802;2023-04-05T10:29:08;102490.88;;;9.05;67.50
52535;BME280;38443;53.164;5.802;2023-04-05T10:31:54;102493.56;;;9.11;60.47
52535;BME280;38443;53.164;5.802;2023-04-05T10:34:41;102494.44;;;9.16;61.48
52535;BME280;38443;53.164;5.802;2023-04-05T10:37:14;102490.03;;;9.24;65.36
52535;BME280;38443;53.164;5.802;2023-04-05T10:39:45;102482.84;;;9.14;62.07
52535;BME280;38443;53.164;5.802;2023-04-05T10:42:24;102486.44;;;9.24;59.50
52535;BME280;38443;53.164;5.802;2023-04-05T10:44:52;102480.22;;;9.22;57.32
52535;BME280;38443;53.164;5.802;2023-04-05T10:47:26;102479.38;;;9.30;58.88
52535;BME280;38443;53.164;5.802;2023-04-05T10:49:53;102483.84;;;9.41;59.30
52535;BME280;38443;53.164;5.802;2023-04-05T10:52:21;102474.06;;;9.55;59.79
52535;BME280;38443;53.164;5.802;2023-04-05T10:54:48;102474.06;;;9.69;59.27
52535;BME280;38443;53.164;5.802;2023-04-05T10:57:14;102468.72;;;9.63;58.73
52535;BME280;38443;53.164;5.802;2023-04-05T10:59:42;102466.03;;;9.50;58.73
52535;BME280;38443;53.164;5.802;2023-04-05T11:02:08;102461.56;;;9.55;59.12
52535;BME280;38443;53.164;5.802;2023-04-05T11:04:33;102462.47;;;9.56;54.27
52535;BME280;38443;53.164;5.802;2023-04-05T11:07:15;102455.34;;;9.83;58.25
52535;BME280;38443;53.164;5.802;2023-04-05T11:10:03;102443.75;;;10.01;58.83
52535;BME280;38443;53.164;5.802;2023-04-05T11:20:42;102458.00;;;9.59;57.11
52535;BME280;38443;53.164;5.802;2023-04-05T11:23:15;102458.00;;;9.55;55.03
52535;BME280;38443;53.164;5.802;2023-04-05T11:28:35;102437.50;;;9.82;55.57
52535;BME280;38443;53.164;5.802;2023-04-05T11:31:16;102439.31;;;9.90;50.54
52535;BME280;38443;53.164;5.802;2023-04-05T11:36:11;102441.94;;;10.16;55.75
52535;BME280;38443;53.164;5.802;2023-04-05T11:38:42;102434.75;;;10.26;56.93
52535;BME280;38443;53.164;5.802;2023-04-05T11:41:15;102424.09;;;10.18;52.30
52535;BME280;38443;53.164;5.802;2023-04-05T11:43:49;102431.25;;;10.13;52.33
52535;BME280;38443;53.164;5.802;2023-04-05T11:46:17;102425.00;;;10.14;54.68
52535;BME280;38443;53.164;5.802;2023-04-05T11:48:48;102419.66;;;10.10;52.84
52535;BME280;38443;53.164;5.802;2023-04-05T11:51:15;102419.66;;;10.02;54.60
52535;BME280;38443;53.164;5.802;2023-04-05T11:53:45;102418.78;;;9.88;52.88
52535;BME280;38443;53.164;5.802;2023-04-05T11:56:10;102412.53;;;9.98;54.66
52535;BME280;38443;53.164;5.802;2023-04-05T11:58:38;102412.53;;;10.06;54.49
52535;BME280;38443;53.164;5.802;2023-04-05T12:01:04;102406.28;;;10.02;48.51
52535;BME280;38443;53.164;5.802;2023-04-05T12:03:30;102403.59;;;10.14;54.67
52535;BME280;38443;53.164;5.802;2023-04-05T12:05:57;102406.25;;;10.17;54.24
52535;BME280;38443;53.164;5.802;2023-04-05T12:08:37;102406.28;;;10.04;51.52
52535;BME280;38443;53.164;5.802;2023-04-05T12:11:06;102389.34;;;9.94;53.49
52535;BME280;38443;53.164;5.802;2023-04-05T12:13:32;102397.38;;;9.97;54.96
52535;BME280;38443;53.164;5.802;2023-04-05T12:16:00;102402.72;;;9.95;55.00
52535;BME280;38443;53.164;5.802;2023-04-05T12:18:26;102382.16;;;10.17;55.53
52535;BME280;38443;53.164;5.802;2023-04-05T12:20:53;102391.97;;;10.35;55.69
52535;BME280;38443;53.164;5.802;2023-04-05T12:23:19;102383.09;;;10.16;52.54
52535;BME280;38443;53.164;5.802;2023-04-05T12:25:46;102384.88;;;10.14;53.63
52535;BME280;38443;53.164;5.802;2023-04-05T12:28:12;102387.56;;;10.08;53.88
52535;BME280;38443;53.164;5.802;2023-04-05T12:30:51;102387.56;;;9.90;49.87
52535;BME280;38443;53.164;5.802;2023-04-05T12:33:31;102376.88;;;9.91;51.68
52535;BME280;38443;53.164;5.802;2023-04-05T12:36:03;102381.34;;;9.98;53.61
52535;BME280;38443;53.164;5.802;2023-04-05T12:38:29;102374.19;;;9.99;55.10
52535;BME280;38443;53.164;5.802;2023-04-05T12:40:59;102375.97;;;9.95;54.41
52535;BME280;38443;53.164;5.802;2023-04-05T12:43:25;102378.66;;;9.95;55.23
52535;BME280;38443;53.164;5.802;2023-04-05T12:45:52;102367.97;;;9.80;54.48
52535;BME280;38443;53.164;5.802;2023-04-05T12:48:21;102368.88;;;9.79;55.64
52535;BME280;38443;53.164;5.802;2023-04-05T12:50:48;102374.25;;;9.71;56.29
52535;BME280;38443;53.164;5.802;2023-04-05T12:53:25;102371.56;;;9.79;53.97
52535;BME280;38443;53.164;5.802;2023-04-05T12:55:54;102369.78;;;9.75;53.22
52535;BME280;38443;53.164;5.802;2023-04-05T12:58:39;102362.66;;;9.71;52.76
52535;BME280;38443;53.164;5.802;2023-04-05T13:01:05;102359.09;;;9.58;54.08
52535;BME280;38443;53.164;5.802;2023-04-05T13:03:31;102363.56;;;9.53;54.51
52535;BME280;38443;53.164;5.802;2023-04-05T13:05:56;102369.78;;;9.61;54.15
52535;BME280;38443;53.164;5.802;2023-04-05T13:08:22;102358.22;;;9.65;54.55
52535;BME280;38443;53.164;5.802;2023-04-05T13:10:48;102350.19;;;9.51;49.56